Time;durP1;ratioP1;P1;durP2;ratioP2;P2;SDS_P1;SDS_P2;PMS_P1;PMS_P2;Temp;Humidity;BMP_temperature;BMP_pressure;BME280_temperature;BME280_humidity;BME280_pressure;Samples;Min_cycle;Max_cycle;Signal;HPM_P1;HPM_P2
2022/09/06 00:01:22;;;;;;;5.80;2.13;;;;;;;;;;5129960;27;20049;-89
2022/09/06 00:03:48;;;;;;;4.32;2.00;;;;;;;;;;5146444;27;20039;-89
2022/09/06 00:06:15;;;;;;;12.27;2.40;;;;;;;;;;5125038;27;20242;-90
2022/09/06 00:08:42;;;;;;;5.65;2.47;;;;;;;;;;5146513;27;20043;-88
2022/09/06 00:11:08;;;;;;;4.00;2.40;;;;;;;;;;5132443;27;20489;-89
2022/09/06 00:13:35;;;;;;;5.18;2.03;;;;;;;;;;5163071;27;20046;-89
2022/09/06 00:16:14;;;;;;;4.53;2.28;;;;;;;;;;5152167;27;20051;-89
2022/09/06 00:18:41;;;;;;;4.70;2.00;;;;;;;;;;5157606;27;20501;-89
2022/09/06 00:21:18;;;;;;;5.15;2.10;;;;;;;;;;5128385;27;20043;-91
2022/09/06 00:23:44;;;;;;;6.32;2.30;;;;;;;;;;5134903;27;20094;-90
2022/09/06 00:26:10;;;;;;;4.63;2.05;;;;;;;;;;5158003;27;20442;-89
2022/09/06 00:28:36;;;;;;;6.93;2.10;;;;;;;;;;5146272;27;20060;-90
2022/09/06 00:31:09;;;;;;;5.68;2.00;;;;;;;;;;5129785;27;20600;-89
2022/09/06 00:33:35;;;;;;;4.68;2.30;;;;;;;;;;5152417;27;20051;-89
2022/09/06 00:36:01;;;;;;;7.28;2.10;;;;;;;;;;5148065;27;20054;-90
2022/09/06 00:38:27;;;;;;;2.47;1.90;;;;;;;;;;5130191;27;20047;-89
2022/09/06 00:40:54;;;;;;;4.93;1.95;;;;;;;;;;5152770;27;20375;-90
2022/09/06 00:43:20;;;;;;;6.30;2.00;;;;;;;;;;5140983;27;20039;-89
2022/09/06 00:45:46;;;;;;;5.10;2.10;;;;;;;;;;5134175;27;20397;-89
2022/09/06 00:48:12;;;;;;;3.92;2.33;;;;;;;;;;5155848;27;20062;-90
2022/09/06 00:50:38;;;;;;;4.95;2.20;;;;;;;;;;5127078;27;20759;-89
2022/09/06 00:53:04;;;;;;;3.40;2.40;;;;;;;;;;5134212;27;20042;-90
2022/09/06 00:55:30;;;;;;;3.65;2.40;;;;;;;;;;5162529;27;20047;-89
2022/09/06 00:57:56;;;;;;;3.83;2.30;;;;;;;;;;5155038;27;20051;-90
2022/09/06 01:00:22;;;;;;;3.35;2.10;;;;;;;;;;5129983;27;20072;-90
2022/09/06 01:02:48;;;;;;;6.20;2.20;;;;;;;;;;5129077;27;20074;-90
2022/09/06 01:05:15;;;;;;;6.43;2.25;;;;;;;;;;5144287;27;20066;-90
2022/09/06 01:07:41;;;;;;;5.38;2.60;;;;;;;;;;5127169;27;20423;-90
2022/09/06 01:10:30;;;;;;;4.85;2.10;;;;;;;;;;5139778;27;20098;-89
2022/09/06 01:13:11;;;;;;;3.95;2.17;;;;;;;;;;5146929;27;20125;-90
2022/09/06 01:15:40;;;;;;;3.85;2.40;;;;;;;;;;5118174;27;20043;-90
2022/09/06 01:18:06;;;;;;;5.13;2.90;;;;;;;;;;5154090;27;21558;-90
2022/09/06 01:20:50;;;;;;;5.97;3.00;;;;;;;;;;5157175;27;20043;-90
2022/09/06 01:23:34;;;;;;;4.05;3.13;;;;;;;;;;5109261;27;20059;-89
2022/09/06 01:26:11;;;;;;;4.63;2.90;;;;;;;;;;5097191;28;20054;-91
2022/09/06 01:28:42;;;;;;;4.68;3.60;;;;;;;;;;5097866;28;20074;-90
2022/09/06 01:31:20;;;;;;;5.88;4.35;;;;;;;;;;5099835;28;20047;-90
2022/09/06 01:33:55;;;;;;;5.80;4.05;;;;;;;;;;5096283;28;21378;-90
2022/09/06 01:36:24;;;;;;;6.10;4.47;;;;;;;;;;5128354;27;20040;-90
2022/09/06 01:38:50;;;;;;;6.28;4.57;;;;;;;;;;5116130;28;20061;-89
2022/09/06 01:41:16;;;;;;;5.07;4.57;;;;;;;;;;5121163;27;20047;-90
2022/09/06 01:43:44;;;;;;;5.60;5.10;;;;;;;;;;5093185;28;20097;-89
2022/09/06 01:46:13;;;;;;;5.57;5.03;;;;;;;;;;5086530;28;20067;-90
2022/09/06 01:48:45;;;;;;;6.55;4.88;;;;;;;;;;5093781;28;20032;-90
2022/09/06 01:51:20;;;;;;;6.20;5.60;;;;;;;;;;5106283;28;20120;-91
2022/09/06 01:53:55;;;;;;;6.22;5.60;;;;;;;;;;5103164;28;20815;-90
2022/09/06 01:56:24;;;;;;;9.15;5.70;;;;;;;;;;5095018;28;20039;-90
2022/09/06 01:58:59;;;;;;;8.70;6.07;;;;;;;;;;5105787;28;20123;-90
2022/09/06 02:01:37;;;;;;;9.13;6.50;;;;;;;;;;5101183;28;20051;-91
2022/09/06 02:04:06;;;;;;;9.38;6.55;;;;;;;;;;5130059;27;20040;-90
2022/09/06 02:06:53;;;;;;;7.82;6.60;;;;;;;;;;5102282;27;20047;-90
2022/09/06 02:09:23;;;;;;;7.85;6.45;;;;;;;;;;5101571;27;20372;-89
2022/09/06 02:11:55;;;;;;;8.30;5.95;;;;;;;;;;5097198;28;20036;-90
2022/09/06 02:14:33;;;;;;;7.05;6.35;;;;;;;;;;5091830;28;20047;-90
2022/09/06 02:16:59;;;;;;;7.72;6.93;;;;;;;;;;5117894;27;20035;-90
2022/09/06 02:19:44;;;;;;;9.15;6.65;;;;;;;;;;5104097;27;20100;-91
2022/09/06 02:22:11;;;;;;;7.68;6.97;;;;;;;;;;5106344;27;20046;-91
2022/09/06 02:24:39;;;;;;;7.22;6.53;;;;;;;;;;5115336;27;20043;-90
2022/09/06 02:27:05;;;;;;;9.10;7.20;;;;;;;;;;5109664;27;20123;-91
2022/09/06 02:29:32;;;;;;;7.25;6.60;;;;;;;;;;5105043;28;20100;-90
2022/09/06 02:32:00;;;;;;;7.53;6.93;;;;;;;;;;5109515;27;20099;-90
2022/09/06 02:34:27;;;;;;;7.43;6.68;;;;;;;;;;5100462;27;20048;-90
2022/09/06 02:36:54;;;;;;;7.53;6.82;;;;;;;;;;5105491;28;20048;-91
2022/09/06 02:39:20;;;;;;;8.07;6.80;;;;;;;;;;5106279;27;20119;-90
2022/09/06 02:41:47;;;;;;;7.70;6.90;;;;;;;;;;5107930;27;20084;-91
2022/09/06 02:44:13;;;;;;;8.25;7.13;;;;;;;;;;5138583;27;20054;-90
2022/09/06 02:46:39;;;;;;;7.75;7.03;;;;;;;;;;5103191;27;20419;-90
2022/09/06 02:49:05;;;;;;;7.30;6.50;;;;;;;;;;5110775;27;20048;-90
2022/09/06 02:51:36;;;;;;;8.35;7.30;;;;;;;;;;5110383;27;20043;-90
2022/09/06 02:54:02;;;;;;;8.77;7.15;;;;;;;;;;5110053;27;20048;-90
2022/09/06 02:56:28;;;;;;;8.45;7.18;;;;;;;;;;5099357;28;20058;-88
2022/09/06 02:58:54;;;;;;;7.65;6.95;;;;;;;;;;5106851;27;20452;-90
2022/09/06 03:01:20;;;;;;;7.68;7.07;;;;;;;;;;5105895;27;20110;-89
2022/09/06 03:03:46;;;;;;;7.70;7.03;;;;;;;;;;5107666;27;20070;-90
2022/09/06 03:06:12;;;;;;;7.72;6.90;;;;;;;;;;5115215;28;21210;-89
2022/09/06 03:08:38;;;;;;;10.63;7.07;;;;;;;;;;5111862;27;20053;-90
2022/09/06 03:11:04;;;;;;;7.75;7.07;;;;;;;;;;5095539;27;20040;-90
2022/09/06 03:13:30;;;;;;;8.75;6.93;;;;;;;;;;5112437;27;20040;-90
2022/09/06 03:15:57;;;;;;;7.43;6.72;;;;;;;;;;5109759;27;20039;-90
2022/09/06 03:18:24;;;;;;;8.00;6.47;;;;;;;;;;5112466;28;20406;-90
2022/09/06 03:20:50;;;;;;;8.05;7.22;;;;;;;;;;5109633;27;20050;-90
2022/09/06 03:23:20;;;;;;;7.82;7.10;;;;;;;;;;5125751;27;20059;-91
2022/09/06 03:25:46;;;;;;;8.07;7.15;;;;;;;;;;5153292;27;20157;-90
2022/09/06 03:28:12;;;;;;;8.25;7.15;;;;;;;;;;5131812;27;20461;-89
2022/09/06 03:30:39;;;;;;;7.75;7.15;;;;;;;;;;5143852;27;20049;-90
2022/09/06 03:33:05;;;;;;;8.93;7.55;;;;;;;;;;5129941;27;20481;-90
2022/09/06 03:35:31;;;;;;;10.05;7.93;;;;;;;;;;5121728;27;20039;-90
2022/09/06 03:37:57;;;;;;;8.88;7.70;;;;;;;;;;5131182;27;20100;-90
2022/09/06 03:40:23;;;;;;;8.13;7.43;;;;;;;;;;5117825;27;20448;-90
2022/09/06 03:42:49;;;;;;;8.63;7.75;;;;;;;;;;5147725;27;20042;-90
2022/09/06 03:45:15;;;;;;;8.10;7.30;;;;;;;;;;5138912;27;20039;-90
2022/09/06 03:47:41;;;;;;;9.82;7.82;;;;;;;;;;5150847;27;20047;-90
2022/09/06 03:50:07;;;;;;;7.82;7.13;;;;;;;;;;5154208;27;20047;-90
2022/09/06 03:52:33;;;;;;;8.55;7.65;;;;;;;;;;5139459;27;20185;-90
2022/09/06 03:54:59;;;;;;;8.10;7.38;;;;;;;;;;5143658;27;20157;-90
2022/09/06 03:57:25;;;;;;;8.27;7.38;;;;;;;;;;5142909;27;20047;-90
2022/09/06 03:59:51;;;;;;;8.13;7.30;;;;;;;;;;5140688;27;20042;-91
2022/09/06 04:02:17;;;;;;;8.35;7.53;;;;;;;;;;5135471;27;20078;-90
2022/09/06 04:04:43;;;;;;;10.18;7.80;;;;;;;;;;5120586;27;20041;-90
2022/09/06 04:07:09;;;;;;;8.10;7.32;;;;;;;;;;5141648;27;20383;-90
2022/09/06 04:09:36;;;;;;;8.20;7.50;;;;;;;;;;5138159;27;20114;-90
2022/09/06 04:12:03;;;;;;;8.45;7.63;;;;;;;;;;5140341;27;20482;-89
2022/09/06 04:14:29;;;;;;;9.70;8.52;;;;;;;;;;5140986;27;20053;-90
2022/09/06 04:16:55;;;;;;;8.57;7.82;;;;;;;;;;5144119;27;20088;-90
2022/09/06 04:19:21;;;;;;;8.57;7.82;;;;;;;;;;5114383;27;20416;-91
2022/09/06 04:21:47;;;;;;;9.10;8.25;;;;;;;;;;5122441;27;20046;-91
2022/09/06 04:24:13;;;;;;;9.75;8.77;;;;;;;;;;5138045;27;20054;-90
2022/09/06 04:26:39;;;;;;;10.10;8.55;;;;;;;;;;5124082;27;20049;-89
2022/09/06 04:29:05;;;;;;;10.23;8.90;;;;;;;;;;5137066;27;20479;-90
2022/09/06 04:31:31;;;;;;;9.43;8.60;;;;;;;;;;5140836;27;20482;-89
2022/09/06 04:33:57;;;;;;;9.75;8.75;;;;;;;;;;5118364;27;20047;-89
2022/09/06 04:36:23;;;;;;;9.70;8.80;;;;;;;;;;5134590;27;20491;-89
2022/09/06 04:38:49;;;;;;;9.65;8.75;;;;;;;;;;5117325;27;20054;-89
2022/09/06 04:41:16;;;;;;;10.13;8.98;;;;;;;;;;5116013;27;20390;-88
2022/09/06 04:43:42;;;;;;;9.68;8.77;;;;;;;;;;5130620;27;20485;-88
2022/09/06 04:46:18;;;;;;;10.15;9.25;;;;;;;;;;5111853;27;20107;-90
2022/09/06 04:48:44;;;;;;;11.15;8.90;;;;;;;;;;5114118;27;20039;-91
2022/09/06 04:51:10;;;;;;;9.35;8.55;;;;;;;;;;5117674;27;20043;-91
2022/09/06 04:53:36;;;;;;;10.05;9.25;;;;;;;;;;5145762;27;20039;-90
2022/09/06 04:56:02;;;;;;;9.88;8.95;;;;;;;;;;5142446;27;20368;-90
2022/09/06 04:58:28;;;;;;;9.35;8.45;;;;;;;;;;5151170;27;20035;-89
2022/09/06 05:00:54;;;;;;;10.30;9.30;;;;;;;;;;5147759;27;20046;-90
2022/09/06 05:03:20;;;;;;;9.52;8.65;;;;;;;;;;5130842;27;20034;-90
2022/09/06 05:05:46;;;;;;;9.85;8.93;;;;;;;;;;5148114;27;20050;-90
2022/09/06 05:08:12;;;;;;;9.65;8.75;;;;;;;;;;5148369;27;20038;-89
2022/09/06 05:10:38;;;;;;;9.35;8.55;;;;;;;;;;5122313;27;20122;-90
2022/09/06 05:13:04;;;;;;;9.20;8.25;;;;;;;;;;5158512;27;20080;-90
2022/09/06 05:15:30;;;;;;;10.35;9.15;;;;;;;;;;5146658;27;20043;-89
2022/09/06 05:18:04;;;;;;;9.90;8.70;;;;;;;;;;5134202;27;20410;-91
2022/09/06 05:20:30;;;;;;;12.95;8.50;;;;;;;;;;5141137;27;20047;-91
2022/09/06 05:22:56;;;;;;;9.88;9.05;;;;;;;;;;5132835;27;20055;-90
2022/09/06 05:25:22;;;;;;;10.07;9.18;;;;;;;;;;5152584;27;20039;-90
2022/09/06 05:27:48;;;;;;;9.65;8.70;;;;;;;;;;5145219;27;20041;-89
2022/09/06 05:30:16;;;;;;;10.15;9.00;;;;;;;;;;5115761;27;20482;-89
2022/09/06 05:32:42;;;;;;;9.55;8.75;;;;;;;;;;5139888;27;20035;-90
2022/09/06 05:35:08;;;;;;;9.20;8.45;;;;;;;;;;5144161;27;20103;-91
2022/09/06 05:37:34;;;;;;;10.52;9.15;;;;;;;;;;5150215;27;20047;-91
2022/09/06 05:40:00;;;;;;;9.55;8.68;;;;;;;;;;5159723;27;20130;-91
2022/09/06 05:42:26;;;;;;;9.90;8.90;;;;;;;;;;5146562;27;20119;-91
2022/09/06 05:44:52;;;;;;;9.55;8.57;;;;;;;;;;5144729;27;20481;-91
2022/09/06 05:47:18;;;;;;;9.45;8.55;;;;;;;;;;5137708;27;20046;-90
2022/09/06 05:49:45;;;;;;;9.60;8.70;;;;;;;;;;5122351;27;20043;-90
2022/09/06 05:52:11;;;;;;;9.82;8.90;;;;;;;;;;5158279;27;20080;-91
2022/09/06 05:54:37;;;;;;;10.95;8.77;;;;;;;;;;5146248;27;20496;-90
2022/09/06 05:57:03;;;;;;;9.63;8.60;;;;;;;;;;5138668;27;20122;-90
2022/09/06 05:59:29;;;;;;;9.50;8.63;;;;;;;;;;5159683;27;20038;-90
2022/09/06 06:01:55;;;;;;;9.82;8.77;;;;;;;;;;5140369;27;20055;-90
2022/09/06 06:04:21;;;;;;;9.15;8.23;;;;;;;;;;5144534;27;20050;-91
2022/09/06 06:06:48;;;;;;;9.00;8.20;;;;;;;;;;5171624;27;20039;-91
2022/09/06 06:09:14;;;;;;;8.60;7.90;;;;;;;;;;5151768;27;20042;-91
2022/09/06 06:11:40;;;;;;;9.02;8.10;;;;;;;;;;5136034;27;20039;-90
2022/09/06 06:14:07;;;;;;;9.48;8.55;;;;;;;;;;5128424;27;20417;-92
2022/09/06 06:16:33;;;;;;;10.02;8.95;;;;;;;;;;5138415;27;20035;-90
2022/09/06 06:18:59;;;;;;;9.25;8.45;;;;;;;;;;5143808;27;20170;-91
2022/09/06 06:21:26;;;;;;;9.27;8.48;;;;;;;;;;5138914;27;20122;-92
2022/09/06 06:23:54;;;;;;;9.32;8.48;;;;;;;;;;5153229;27;20046;-92
2022/09/06 06:26:20;;;;;;;9.60;8.73;;;;;;;;;;5169979;27;20090;-90
2022/09/06 06:28:47;;;;;;;9.10;8.20;;;;;;;;;;5140797;27;20077;-91
2022/09/06 06:31:13;;;;;;;9.85;8.95;;;;;;;;;;5154536;27;20041;-92
2022/09/06 06:33:40;;;;;;;9.00;8.20;;;;;;;;;;5135419;27;20046;-90
2022/09/06 06:36:07;;;;;;;9.38;8.32;;;;;;;;;;5131175;27;20485;-91
2022/09/06 06:38:34;;;;;;;9.23;8.52;;;;;;;;;;5127151;27;20054;-91
2022/09/06 06:41:01;;;;;;;10.20;9.30;;;;;;;;;;5127727;27;20077;-90
2022/09/06 06:43:27;;;;;;;9.50;8.60;;;;;;;;;;5171955;27;20038;-90
2022/09/06 06:45:53;;;;;;;10.02;9.10;;;;;;;;;;5144095;27;20485;-91
2022/09/06 06:48:20;;;;;;;8.90;8.18;;;;;;;;;;5142178;27;20055;-90
2022/09/06 06:50:46;;;;;;;9.77;8.88;;;;;;;;;;5151918;27;20046;-91
2022/09/06 06:53:14;;;;;;;9.52;8.55;;;;;;;;;;5167722;27;20037;-91
2022/09/06 06:55:45;;;;;;;9.50;8.68;;;;;;;;;;5130742;27;20038;-91
2022/09/06 06:58:11;;;;;;;10.10;9.10;;;;;;;;;;5135359;27;20090;-91
2022/09/06 07:00:37;;;;;;;9.82;8.70;;;;;;;;;;5131347;27;20038;-91
2022/09/06 07:03:04;;;;;;;9.60;8.70;;;;;;;;;;5143682;27;20078;-88
2022/09/06 07:05:30;;;;;;;9.35;8.55;;;;;;;;;;5121380;27;20140;-89
2022/09/06 07:07:56;;;;;;;10.07;9.07;;;;;;;;;;5132194;27;20053;-89
2022/09/06 07:10:23;;;;;;;10.38;8.95;;;;;;;;;;5151810;27;20126;-87
2022/09/06 07:12:50;;;;;;;9.85;9.05;;;;;;;;;;5150716;27;20042;-87
2022/09/06 07:15:16;;;;;;;11.57;8.98;;;;;;;;;;5145963;27;20046;-86
2022/09/06 07:17:43;;;;;;;10.15;9.15;;;;;;;;;;5135345;27;20055;-86
2022/09/06 07:20:09;;;;;;;9.80;8.90;;;;;;;;;;5133347;27;20046;-86
2022/09/06 07:22:35;;;;;;;9.98;9.02;;;;;;;;;;5115611;27;20509;-86
2022/09/06 07:25:02;;;;;;;10.00;8.65;;;;;;;;;;5123761;27;20042;-87
2022/09/06 07:27:28;;;;;;;9.77;8.82;;;;;;;;;;5144740;27;20138;-87
2022/09/06 07:29:54;;;;;;;9.93;9.10;;;;;;;;;;5144155;27;20046;-87
2022/09/06 07:32:20;;;;;;;9.80;8.80;;;;;;;;;;5147121;27;20402;-87
2022/09/06 07:34:46;;;;;;;10.15;9.15;;;;;;;;;;5118380;27;20049;-87
2022/09/06 07:37:12;;;;;;;10.65;9.60;;;;;;;;;;5140945;27;20045;-88
2022/09/06 07:39:38;;;;;;;10.77;9.68;;;;;;;;;;5134014;27;20047;-86
2022/09/06 07:42:05;;;;;;;10.82;9.13;;;;;;;;;;5144656;27;20390;-87
2022/09/06 07:44:31;;;;;;;10.00;9.10;;;;;;;;;;5140176;27;20050;-87
2022/09/06 07:46:57;;;;;;;10.00;9.10;;;;;;;;;;5125773;27;20038;-88
2022/09/06 07:49:23;;;;;;;9.98;9.02;;;;;;;;;;5138855;27;20058;-88
2022/09/06 07:51:49;;;;;;;9.90;9.10;;;;;;;;;;5143234;27;20046;-88
2022/09/06 07:54:15;;;;;;;11.27;10.27;;;;;;;;;;5121741;27;20047;-88
2022/09/06 07:56:41;;;;;;;10.40;9.43;;;;;;;;;;5137946;27;20125;-87
2022/09/06 07:59:08;;;;;;;11.10;10.00;;;;;;;;;;5114491;27;20035;-87
2022/09/06 08:01:37;;;;;;;10.63;9.60;;;;;;;;;;5115239;27;20402;-88
2022/09/06 08:04:07;;;;;;;10.85;9.90;;;;;;;;;;5141916;27;20035;-87
2022/09/06 08:06:37;;;;;;;11.00;9.90;;;;;;;;;;5123213;27;20060;-88
2022/09/06 08:09:05;;;;;;;10.85;9.75;;;;;;;;;;5130417;27;20501;-86
2022/09/06 08:11:33;;;;;;;10.95;9.85;;;;;;;;;;5134570;27;20416;-88
2022/09/06 08:13:59;;;;;;;10.82;9.45;;;;;;;;;;5139674;27;20049;-87
2022/09/06 08:16:26;;;;;;;10.88;9.55;;;;;;;;;;5144248;27;20038;-84
2022/09/06 08:18:57;;;;;;;10.80;9.80;;;;;;;;;;5133308;27;20126;-86
2022/09/06 08:21:24;;;;;;;10.77;9.77;;;;;;;;;;5116211;27;20062;-87
2022/09/06 08:23:51;;;;;;;10.45;9.43;;;;;;;;;;5143642;27;20054;-86
2022/09/06 08:26:19;;;;;;;10.25;9.20;;;;;;;;;;5132636;27;20051;-86
2022/09/06 08:28:45;;;;;;;9.07;8.27;;;;;;;;;;5146321;27;20039;-87
2022/09/06 08:31:12;;;;;;;10.98;9.50;;;;;;;;;;5139753;27;20449;-89
2022/09/06 08:33:38;;;;;;;9.63;8.73;;;;;;;;;;5145358;27;20045;-86
2022/09/06 08:36:05;;;;;;;10.07;9.27;;;;;;;;;;5140026;27;20085;-87
2022/09/06 08:38:31;;;;;;;9.95;9.05;;;;;;;;;;5136497;27;20035;-87
2022/09/06 08:41:16;;;;;;;9.43;8.50;;;;;;;;;;5120766;27;20073;-87
2022/09/06 08:43:53;;;;;;;9.82;8.77;;;;;;;;;;5127134;27;20064;-88
2022/09/06 08:46:20;;;;;;;10.68;9.57;;;;;;;;;;5116295;27;20031;-86
2022/09/06 08:48:46;;;;;;;10.40;9.50;;;;;;;;;;5137166;27;20039;-87
2022/09/06 08:51:18;;;;;;;10.68;9.60;;;;;;;;;;5116662;27;20707;-88
2022/09/06 08:53:45;;;;;;;10.82;9.52;;;;;;;;;;5137326;27;20051;-87
2022/09/06 08:56:15;;;;;;;11.43;8.93;;;;;;;;;;5115037;27;20471;-88
2022/09/06 08:58:44;;;;;;;13.05;9.88;;;;;;;;;;5121676;27;20054;-87
2022/09/06 09:01:24;;;;;;;11.57;9.45;;;;;;;;;;5135787;27;20050;-87
2022/09/06 09:03:52;;;;;;;10.50;9.60;;;;;;;;;;5121864;27;20043;-88
2022/09/06 09:06:18;;;;;;;10.30;9.40;;;;;;;;;;5122124;27;20070;-87
2022/09/06 09:08:52;;;;;;;9.57;8.60;;;;;;;;;;5114347;27;20135;-87
2022/09/06 09:11:20;;;;;;;9.65;8.75;;;;;;;;;;5141850;27;20375;-86
2022/09/06 09:13:54;;;;;;;10.02;9.02;;;;;;;;;;5144715;27;20035;-88
2022/09/06 09:16:20;;;;;;;7.65;7.05;;;;;;;;;;5139899;27;20081;-84
2022/09/06 09:18:49;;;;;;;9.13;8.02;;;;;;;;;;5129342;27;20043;-85
2022/09/06 09:21:17;;;;;;;8.30;7.47;;;;;;;;;;5117684;27;20047;-86
2022/09/06 09:23:44;;;;;;;8.57;7.68;;;;;;;;;;5136271;27;20048;-85
2022/09/06 09:26:15;;;;;;;9.07;7.60;;;;;;;;;;5124765;27;20085;-85
2022/09/06 09:29:00;;;;;;;7.38;6.78;;;;;;;;;;5126030;27;20084;-84
2022/09/06 09:31:35;;;;;;;9.20;7.18;;;;;;;;;;5131496;27;20054;-86
2022/09/06 09:34:03;;;;;;;7.53;6.82;;;;;;;;;;5126854;27;20485;-85
2022/09/06 09:36:30;;;;;;;8.35;6.90;;;;;;;;;;5157163;27;20583;-85
2022/09/06 09:38:57;;;;;;;7.38;6.72;;;;;;;;;;5121383;27;20043;-86
2022/09/06 09:41:33;;;;;;;7.20;6.50;;;;;;;;;;5123741;27;20043;-86
2022/09/06 09:44:04;;;;;;;7.00;6.40;;;;;;;;;;5135703;27;20042;-86
2022/09/06 09:46:31;;;;;;;8.27;7.47;;;;;;;;;;5152584;27;20039;-86
2022/09/06 09:49:03;;;;;;;7.50;6.90;;;;;;;;;;5126911;27;20121;-87
2022/09/06 09:51:31;;;;;;;15.33;7.90;;;;;;;;;;5120842;27;20035;-86
2022/09/06 09:53:58;;;;;;;7.55;6.80;;;;;;;;;;5136843;27;20328;-88
2022/09/06 09:56:37;;;;;;;7.03;5.25;;;;;;;;;;5126542;27;20038;-87
2022/09/06 09:59:07;;;;;;;7.45;5.53;;;;;;;;;;5126443;27;20047;-86
2022/09/06 10:01:33;;;;;;;42.83;7.03;;;;;;;;;;5132981;27;20603;-86
2022/09/06 10:04:00;;;;;;;10.10;6.75;;;;;;;;;;5140001;27;20038;-86
2022/09/06 10:06:26;;;;;;;9.52;5.97;;;;;;;;;;5144565;27;20043;-86
2022/09/06 10:08:53;;;;;;;7.20;6.55;;;;;;;;;;5136419;27;20359;-86
2022/09/06 10:11:37;;;;;;;7.05;5.82;;;;;;;;;;5117598;27;20043;-85
2022/09/06 10:14:25;;;;;;;5.97;5.40;;;;;;;;;;5124199;27;20031;-85
2022/09/06 10:16:51;;;;;;;7.45;6.70;;;;;;;;;;5131181;27;20054;-86
2022/09/06 10:19:37;;;;;;;5.60;5.20;;;;;;;;;;5139161;27;20369;-86
2022/09/06 10:22:13;;;;;;;5.70;5.10;;;;;;;;;;5151335;27;20577;-86
2022/09/06 10:24:58;;;;;;;5.20;4.70;;;;;;;;;;5109815;27;20073;-85
2022/09/06 10:27:27;;;;;;;5.70;5.20;;;;;;;;;;5102913;28;20387;-88
2022/09/06 10:30:07;;;;;;;7.10;6.40;;;;;;;;;;5114072;27;20054;-89
2022/09/06 10:32:33;;;;;;;6.68;5.90;;;;;;;;;;5116330;27;20047;-91
2022/09/06 10:35:09;;;;;;;6.70;6.03;;;;;;;;;;5127632;27;20071;-86
2022/09/06 10:37:51;;;;;;;6.60;5.55;;;;;;;;;;5112348;27;20063;-88
2022/09/06 10:40:33;;;;;;;6.70;5.57;;;;;;;;;;5100424;28;20055;-88
2022/09/06 10:43:00;;;;;;;7.20;6.43;;;;;;;;;;5102823;27;20043;-87
2022/09/06 10:45:29;;;;;;;6.93;6.32;;;;;;;;;;5097305;28;20447;-88
2022/09/06 10:48:00;;;;;;;6.40;5.90;;;;;;;;;;5104682;27;20049;-89
2022/09/06 10:50:45;;;;;;;7.80;7.03;;;;;;;;;;5109319;27;20055;-89
2022/09/06 10:53:30;;;;;;;6.35;5.75;;;;;;;;;;5100588;27;20433;-90
2022/09/06 10:56:02;;;;;;;6.55;5.78;;;;;;;;;;5102659;28;20039;-91
2022/09/06 10:58:31;;;;;;;6.50;6.00;;;;;;;;;;5113154;27;20130;-89
2022/09/06 11:00:57;;;;;;;6.80;6.18;;;;;;;;;;5118187;27;20044;-89
2022/09/06 11:03:27;;;;;;;5.70;5.18;;;;;;;;;;5110306;27;20199;-84
2022/09/06 11:05:55;;;;;;;5.97;5.47;;;;;;;;;;5098250;28;20040;-86
2022/09/06 11:08:21;;;;;;;6.40;5.90;;;;;;;;;;5101900;27;20043;-86
2022/09/06 11:10:49;;;;;;;8.20;5.70;;;;;;;;;;5128719;27;20407;-84
2022/09/06 11:13:16;;;;;;;6.50;5.90;;;;;;;;;;5096138;28;20052;-84
2022/09/06 11:15:45;;;;;;;6.78;6.07;;;;;;;;;;5093396;28;20109;-87
2022/09/06 11:18:17;;;;;;;6.00;5.50;;;;;;;;;;5101440;27;20494;-86
2022/09/06 11:21:02;;;;;;;6.95;5.75;;;;;;;;;;5130033;27;20546;-86
2022/09/06 11:23:48;;;;;;;6.25;5.63;;;;;;;;;;5127282;27;20454;-86
2022/09/06 11:26:23;;;;;;;8.23;6.00;;;;;;;;;;5140241;27;20126;-85
2022/09/06 11:28:52;;;;;;;6.65;6.05;;;;;;;;;;5131962;27;20520;-86
2022/09/06 11:31:23;;;;;;;7.15;6.45;;;;;;;;;;5123060;27;20106;-85
2022/09/06 11:34:01;;;;;;;5.55;5.05;;;;;;;;;;5124164;27;20046;-84
2022/09/06 11:36:34;;;;;;;7.47;4.85;;;;;;;;;;5139108;27;20077;-84
2022/09/06 11:39:01;;;;;;;4.85;4.43;;;;;;;;;;5121438;27;20095;-83
2022/09/06 11:41:29;;;;;;;5.35;4.82;;;;;;;;;;5142581;27;20170;-83
2022/09/06 11:43:55;;;;;;;4.30;3.92;;;;;;;;;;5122538;27;20511;-84
2022/09/06 11:46:34;;;;;;;5.00;4.50;;;;;;;;;;5145160;27;20043;-84
2022/09/06 11:49:04;;;;;;;4.60;4.20;;;;;;;;;;5121955;27;20050;-85
2022/09/06 11:51:35;;;;;;;5.03;4.57;;;;;;;;;;5141480;27;20568;-84
2022/09/06 11:54:21;;;;;;;4.88;4.22;;;;;;;;;;5142722;27;20111;-86
2022/09/06 11:56:52;;;;;;;6.05;5.43;;;;;;;;;;5120492;27;20462;-85
2022/09/06 11:59:18;;;;;;;6.82;5.72;;;;;;;;;;5114689;27;20074;-84
2022/09/06 12:01:59;;;;;;;8.10;7.05;;;;;;;;;;5144681;27;20047;-84
2022/09/06 12:04:45;;;;;;;9.60;7.10;;;;;;;;;;5122856;27;20316;-86
2022/09/06 12:07:12;;;;;;;7.65;6.90;;;;;;;;;;5136185;27;20110;-85
2022/09/06 12:09:41;;;;;;;8.95;7.90;;;;;;;;;;5130859;27;20497;-85
2022/09/06 12:12:07;;;;;;;7.65;6.88;;;;;;;;;;5117784;27;20482;-84
2022/09/06 12:14:45;;;;;;;6.53;5.43;;;;;;;;;;5121282;27;20042;-84
2022/09/06 12:17:15;;;;;;;5.78;5.20;;;;;;;;;;5133874;27;20048;-85
2022/09/06 12:19:41;;;;;;;5.47;4.57;;;;;;;;;;5123191;27;20046;-85
2022/09/06 12:22:26;;;;;;;5.60;4.80;;;;;;;;;;5126444;27;20042;-85
2022/09/06 12:24:54;;;;;;;5.55;5.05;;;;;;;;;;5115874;27;20140;-85
2022/09/06 12:27:22;;;;;;;6.47;4.30;;;;;;;;;;5142245;27;20046;-84
2022/09/06 12:29:57;;;;;;;5.40;3.90;;;;;;;;;;5121509;27;20053;-85
2022/09/06 12:32:42;;;;;;;5.05;4.07;;;;;;;;;;5136251;27;20045;-84
2022/09/06 12:35:17;;;;;;;4.07;3.50;;;;;;;;;;5122083;27;20095;-86
2022/09/06 12:38:09;;;;;;;5.60;3.65;;;;;;;;;;5129697;27;20421;-85
2022/09/06 12:40:39;;;;;;;6.93;3.73;;;;;;;;;;5135502;27;20571;-85
2022/09/06 12:43:08;;;;;;;4.28;3.65;;;;;;;;;;5118131;27;20046;-85
2022/09/06 12:45:34;;;;;;;3.88;3.47;;;;;;;;;;5130348;27;20081;-85
2022/09/06 12:48:08;;;;;;;6.18;4.15;;;;;;;;;;5126115;27;20549;-86
2022/09/06 12:50:34;;;;;;;6.10;3.70;;;;;;;;;;5125329;27;20956;-86
2022/09/06 12:53:02;;;;;;;4.13;3.72;;;;;;;;;;5129475;27;20073;-84
2022/09/06 12:55:38;;;;;;;4.28;3.88;;;;;;;;;;5140831;27;20518;-86
2022/09/06 12:58:11;;;;;;;5.85;3.80;;;;;;;;;;5139153;27;20050;-85
2022/09/06 13:00:37;;;;;;;5.15;3.72;;;;;;;;;;5140469;27;20490;-85
2022/09/06 13:03:15;;;;;;;3.53;3.22;;;;;;;;;;5140930;27;20035;-86
2022/09/06 13:05:42;;;;;;;5.63;3.95;;;;;;;;;;5145554;27;20099;-86
2022/09/06 13:08:12;;;;;;;4.18;3.65;;;;;;;;;;5118303;27;20071;-86
2022/09/06 13:10:41;;;;;;;4.05;3.70;;;;;;;;;;5128644;27;20099;-86
2022/09/06 13:13:07;;;;;;;4.65;3.83;;;;;;;;;;5114965;27;20383;-86
2022/09/06 13:15:33;;;;;;;5.57;3.95;;;;;;;;;;5140007;27;20500;-86
2022/09/06 13:18:22;;;;;;;5.53;4.18;;;;;;;;;;5123763;27;20036;-85
2022/09/06 13:20:58;;;;;;;5.53;4.10;;;;;;;;;;5143623;27;20043;-87
2022/09/06 13:23:25;;;;;;;7.32;4.15;;;;;;;;;;5119701;27;20081;-86
2022/09/06 13:25:52;;;;;;;5.15;4.15;;;;;;;;;;5122049;27;20042;-86
2022/09/06 13:28:29;;;;;;;7.10;4.72;;;;;;;;;;5135184;27;20039;-86
2022/09/06 13:31:19;;;;;;;7.88;5.40;;;;;;;;;;5138663;27;20486;-86
2022/09/06 13:33:54;;;;;;;6.30;5.13;;;;;;;;;;5120138;28;20046;-86
2022/09/06 13:36:22;;;;;;;5.18;4.45;;;;;;;;;;5146868;27;20386;-85
2022/09/06 13:38:49;;;;;;;5.30;4.80;;;;;;;;;;5123848;28;20047;-86
2022/09/06 13:41:24;;;;;;;8.60;5.78;;;;;;;;;;5150757;27;20174;-85
2022/09/06 13:44:04;;;;;;;5.90;4.75;;;;;;;;;;5120932;27;20042;-88
2022/09/06 13:46:37;;;;;;;5.22;4.68;;;;;;;;;;5145402;27;20050;-88
2022/09/06 13:49:04;;;;;;;7.90;5.28;;;;;;;;;;5139233;27;20046;-88
2022/09/06 13:51:30;;;;;;;8.20;5.43;;;;;;;;;;5129576;27;20038;-83
2022/09/06 13:54:06;;;;;;;5.55;4.97;;;;;;;;;;5164599;27;20050;-84
2022/09/06 13:56:32;;;;;;;6.63;4.82;;;;;;;;;;5132433;27;20042;-84
2022/09/06 13:58:58;;;;;;;5.20;4.70;;;;;;;;;;5143062;27;20079;-84
2022/09/06 14:01:24;;;;;;;6.20;5.22;;;;;;;;;;5130208;27;20438;-85
2022/09/06 14:03:51;;;;;;;4.55;4.15;;;;;;;;;;5120828;27;20130;-85
2022/09/06 14:06:17;;;;;;;5.55;4.95;;;;;;;;;;5139303;27;20066;-85
2022/09/06 14:08:43;;;;;;;5.95;5.40;;;;;;;;;;5154825;27;20127;-85
2022/09/06 14:11:09;;;;;;;5.47;4.97;;;;;;;;;;5136444;27;20271;-85
2022/09/06 14:13:35;;;;;;;6.43;5.47;;;;;;;;;;5126345;27;21568;-85
2022/09/06 14:16:04;;;;;;;5.90;5.30;;;;;;;;;;5140979;27;20386;-85
2022/09/06 14:18:30;;;;;;;5.50;4.97;;;;;;;;;;5127940;27;20074;-86
2022/09/06 14:20:57;;;;;;;5.15;4.68;;;;;;;;;;5136883;27;20038;-87
2022/09/06 14:23:23;;;;;;;7.13;6.43;;;;;;;;;;5142292;27;20039;-87
2022/09/06 14:25:49;;;;;;;5.75;5.20;;;;;;;;;;5139550;27;20397;-87
2022/09/06 14:28:16;;;;;;;6.82;6.00;;;;;;;;;;5143554;27;20106;-80
2022/09/06 14:30:42;;;;;;;6.40;5.80;;;;;;;;;;5137787;27;20041;-79
2022/09/06 14:33:08;;;;;;;6.50;5.72;;;;;;;;;;5123144;27;20050;-79
2022/09/06 14:35:34;;;;;;;5.93;5.43;;;;;;;;;;5142585;27;20463;-79
2022/09/06 14:38:00;;;;;;;7.32;6.63;;;;;;;;;;5149531;27;20050;-79
2022/09/06 14:40:26;;;;;;;7.18;6.47;;;;;;;;;;5129961;27;20050;-80
2022/09/06 14:42:52;;;;;;;6.50;6.00;;;;;;;;;;5145636;27;20026;-80
2022/09/06 14:45:19;;;;;;;6.43;5.93;;;;;;;;;;5118199;27;20050;-80
2022/09/06 14:47:45;;;;;;;6.57;5.97;;;;;;;;;;5130328;27;20440;-79
2022/09/06 14:50:11;;;;;;;8.77;7.05;;;;;;;;;;5126846;27;20050;-79
2022/09/06 14:52:37;;;;;;;8.30;6.43;;;;;;;;;;5133105;27;20042;-79